Warson Woods, Missouri
Current Conditions -  °F | °C
As of 7:21 AM on Saturday 20 Dec 2014 (Local Time) from KSTL Reporting Station
Overcast Overcast  
Wind Chill: 31°   Ceiling: 2900
Heat Index: 36°   Visibility: 7mi
Dew Point: 27°   Wind: 6mph
Humidity: 70%   Direction: 150°SSE
Pressure: 30.27"   Gusts: NA
Location:  38.5796°N, 90.4197°W
Report Text: KSTL 201321Z 15005KT 7SM BKN029 OVC065 02/M03 A3027 RMK AO2
Loading
Personal Weather Stations






























Interactive Weather Map New forecast layout! Learn more

10-Day Weather Forecast

Advertisements
Track Severe Weather on mobile